Aeroporto :
LOGIN :

Iscrizione | Disclaimer

   EN    FR    IT 

 










Sommario :    VFR   VFR Marginale   IFR   IFR Intensivo   IFR Molto Intensivo
Visibilità : 
Base nubi : 
>= 8 km
>= 3000ft
5 / 8 km
1000 / 3000 ft
1500m / 5 km
500 / 1000 ft
800 / 1500m
200 / 500 ft
< 800m
< 200 ft
Simboli :   Temporali  Nebbia  Neve Forte  Precipitazioni Forti  Vento > 20 kt
SIGMETs :   Varie  Temporali  Ghiacco  Turbolenza  Onda orograficha  Ceneri Vulcaniche






- Altitudine del aeroporto : 325 ft
- Codice IATA : BES


LFRB - Brest

ULTIMO METAR :
  • 131700Z AUTO 19007KT 9999 ///TCU 05/04 Q0995 TEMPO 30015G25KT 3000 SHRA SCT012CB BKN014

METARs OBSOLETI :
  • 131630Z AUTO 22006KT 9999 FEW017/// SCT033/// BKN060/// ///CB 05/04 Q0995 TEMPO 30015G25KT 3000 SHRA
  • 131600Z AUTO 29011KT 6000 RA BKN016/// BKN025/// OVC031/// ///CB 05/04 Q0996 TEMPO 21025G40KT 2000 RA OVC009 SCT020CB
  • 131530Z AUTO 30017G28KT 270V330 5000 RA BR BKN014/// BKN020/// OVC027/// ///CB 05/04 Q0996 TEMPO 2000 RA BECMG 28014KT SCT022TCU SCT032
  • 131500Z AUTO 20019KT 9999 -RA BKN017/// BKN024/// OVC032/// ///CB 09/08 Q0996 TEMPO 21025G40KT 2000 RA OVC009 SCT020CB
  • 131430Z AUTO 20023KT 9999 BKN021/// BKN026/// BKN034/// ///TCU 10/07 Q0997 TEMPO 21020G35KT 2000 +RA OVC005 SCT020CB

TAF AMD TAF LFRB
Valido dal 13 a 16 ore il 14 a 18 ore UTC


131627Z 1316/1418 27012KT 9999 SCT015TCU BKN030
TEMPO 1316/1412 30015G25KT 3000 SHRA SCT012CB BKN014
PROB30
TEMPO 1316/1409 TSGSRA
TEMPO 1412/1418 SHRA BKN015TCU
BECMG 1415/1418 36010KT
ATIS : +33 2 98 32 02 71



MetMap, La meteo Aeronautica in un colpo d'occhio ! - Copyright ORBIFLY Dicembre 2007 - Disclaimer

ORBIFLY MET'MAP TEAM :

Programmazione e sviluppo : Alexandra Zaïnal
Concezione e sviluppo : Baudouin d'Aumeries
Co-Programmazione e sviluppo : Marc-Olivier Méhu
Supporto tecnico e logistico : Manuel Goepfert
Aiuto per la traduzione : Arnaldo La Scala

Contatto : metmap@orbifly.com




FONTI E CREDITI :

   NOAA